Time;durP1;ratioP1;P1;durP2;ratioP2;P2;SDS_P1;SDS_P2;PMS_P1;PMS_P2;Temp;Humidity;BMP_temperature;BMP_pressure;BME280_temperature;BME280_humidity;BME280_pressure;Samples;Min_cycle;Max_cycle;Signal;HPM_P1;HPM_P2
2022/03/23 00:00:13;;;;;;;38.70;19.45;;;;;;;;;;4973846;28;92485;-79
2022/03/23 00:02:39;;;;;;;37.60;18.23;;;;;;;;;;4972700;28;93658;-79
2022/03/23 00:05:05;;;;;;;36.75;18.90;;;;;;;;;;4973490;28;95384;-79
2022/03/23 00:07:33;;;;;;;40.50;17.50;;;;;;;;;;4973698;28;92497;-79
2022/03/23 00:09:59;;;;;;;33.90;18.45;;;;;;;;;;4966925;28;93325;-78
2022/03/23 00:12:25;;;;;;;39.22;19.30;;;;;;;;;;4973426;28;93413;-78
2022/03/23 00:14:52;;;;;;;39.17;18.10;;;;;;;;;;4972557;28;92539;-79
2022/03/23 00:17:18;;;;;;;39.58;18.70;;;;;;;;;;4975746;28;95372;-78
2022/03/23 00:19:45;;;;;;;46.38;19.83;;;;;;;;;;4973174;28;93083;-78
2022/03/23 00:22:11;;;;;;;37.53;20.27;;;;;;;;;;4957071;28;93598;-78
2022/03/23 00:24:37;;;;;;;40.45;19.45;;;;;;;;;;4954000;28;93600;-79
2022/03/23 00:27:04;;;;;;;46.92;20.30;;;;;;;;;;4953800;28;92422;-78
2022/03/23 00:29:30;;;;;;;38.63;19.35;;;;;;;;;;4955771;28;94922;-78
2022/03/23 00:31:56;;;;;;;35.65;19.45;;;;;;;;;;4972213;28;93615;-78
2022/03/23 00:34:23;;;;;;;41.60;18.00;;;;;;;;;;4972097;28;92538;-79
2022/03/23 00:36:50;;;;;;;35.10;19.17;;;;;;;;;;4972130;28;93331;-79
2022/03/23 00:39:17;;;;;;;34.95;19.48;;;;;;;;;;4975997;28;93551;-79
2022/03/23 00:41:49;;;;;;;42.30;19.67;;;;;;;;;;4973332;28;93247;-78
2022/03/23 00:44:15;;;;;;;44.17;20.33;;;;;;;;;;4971947;28;93737;-78
2022/03/23 00:46:42;;;;;;;35.72;20.15;;;;;;;;;;4973843;28;91830;-78
2022/03/23 00:49:09;;;;;;;42.90;20.25;;;;;;;;;;4973637;28;92560;-78
2022/03/23 00:51:36;;;;;;;43.72;19.92;;;;;;;;;;4972375;28;92860;-79
2022/03/23 00:54:02;;;;;;;43.88;19.75;;;;;;;;;;4970218;28;94867;-79
2022/03/23 00:56:29;;;;;;;39.22;20.02;;;;;;;;;;4971577;28;95731;-79
2022/03/23 00:58:55;;;;;;;37.92;19.92;;;;;;;;;;4972475;28;93502;-78
2022/03/23 01:01:22;;;;;;;59.58;20.48;;;;;;;;;;4975030;28;92688;-78
2022/03/23 01:03:49;;;;;;;40.83;20.60;;;;;;;;;;4973273;28;93715;-78
2022/03/23 01:06:15;;;;;;;39.35;19.73;;;;;;;;;;4972755;28;92438;-78
2022/03/23 01:08:41;;;;;;;42.00;20.88;;;;;;;;;;4972623;28;93825;-78
2022/03/23 01:11:10;;;;;;;42.30;20.38;;;;;;;;;;4972373;28;92678;-77
2022/03/23 01:13:36;;;;;;;36.13;19.52;;;;;;;;;;4973188;28;92399;-78
2022/03/23 01:16:04;;;;;;;34.25;19.63;;;;;;;;;;4973542;28;92419;-78
2022/03/23 01:18:30;;;;;;;44.55;21.63;;;;;;;;;;4970502;28;95749;-79
2022/03/23 01:20:57;;;;;;;38.40;20.17;;;;;;;;;;4972534;28;92415;-78
2022/03/23 01:23:24;;;;;;;38.30;20.73;;;;;;;;;;4974800;28;93051;-78
2022/03/23 01:25:50;;;;;;;34.08;20.98;;;;;;;;;;4971833;28;92805;-78
2022/03/23 01:28:16;;;;;;;39.25;21.52;;;;;;;;;;4972636;28;93218;-79
2022/03/23 01:30:43;;;;;;;36.00;20.17;;;;;;;;;;4974184;28;93567;-78
2022/03/23 01:33:09;;;;;;;34.05;20.85;;;;;;;;;;4976691;28;92470;-78
2022/03/23 01:35:35;;;;;;;37.95;20.73;;;;;;;;;;4976639;28;93129;-79
2022/03/23 01:38:02;;;;;;;36.58;20.92;;;;;;;;;;4976007;28;93838;-79
2022/03/23 01:40:28;;;;;;;35.92;20.40;;;;;;;;;;4976424;28;92465;-78
2022/03/23 01:42:54;;;;;;;36.67;20.33;;;;;;;;;;4977245;28;95205;-78
2022/03/23 01:45:21;;;;;;;40.08;20.88;;;;;;;;;;4972890;28;92706;-78
2022/03/23 01:47:47;;;;;;;38.92;21.55;;;;;;;;;;4956823;28;93189;-78
2022/03/23 01:50:14;;;;;;;36.65;20.45;;;;;;;;;;4956585;28;93927;-78
2022/03/23 01:52:40;;;;;;;47.67;21.20;;;;;;;;;;4956902;28;92383;-78
2022/03/23 01:55:09;;;;;;;41.63;21.90;;;;;;;;;;4956453;28;93406;-78
2022/03/23 01:57:36;;;;;;;39.88;21.25;;;;;;;;;;4956494;28;93348;-78
2022/03/23 02:00:03;;;;;;;41.83;21.58;;;;;;;;;;4956724;28;91804;-78
2022/03/23 02:02:29;;;;;;;34.67;20.92;;;;;;;;;;4956964;28;93024;-78
2022/03/23 02:04:56;;;;;;;37.20;20.92;;;;;;;;;;4958884;28;94411;-78
2022/03/23 02:07:24;;;;;;;41.17;21.80;;;;;;;;;;4954320;28;94804;-78
2022/03/23 02:09:50;;;;;;;39.45;21.63;;;;;;;;;;4955022;28;93576;-78
2022/03/23 02:12:17;;;;;;;38.90;21.27;;;;;;;;;;4956201;28;92495;-79
2022/03/23 02:14:43;;;;;;;46.75;22.85;;;;;;;;;;4954825;28;93245;-78
2022/03/23 02:17:11;;;;;;;46.70;21.45;;;;;;;;;;4974149;28;93729;-78
2022/03/23 02:19:38;;;;;;;35.95;22.17;;;;;;;;;;4975723;28;92746;-78
2022/03/23 02:22:04;;;;;;;42.53;22.35;;;;;;;;;;4960414;28;93767;-78
2022/03/23 02:24:31;;;;;;;39.00;21.75;;;;;;;;;;4956661;28;92681;-78
2022/03/23 02:26:59;;;;;;;39.22;22.17;;;;;;;;;;4957505;28;92786;-80
2022/03/23 02:29:29;;;;;;;44.55;21.58;;;;;;;;;;4955973;28;93598;-78
2022/03/23 02:31:56;;;;;;;54.30;22.77;;;;;;;;;;4954376;28;95393;-78
2022/03/23 02:34:24;;;;;;;43.80;23.10;;;;;;;;;;4955935;28;96776;-78
2022/03/23 02:36:55;;;;;;;44.67;22.92;;;;;;;;;;4956021;28;93294;-78
2022/03/23 02:39:21;;;;;;;42.63;21.40;;;;;;;;;;4955427;28;92457;-78
2022/03/23 02:41:48;;;;;;;43.00;22.60;;;;;;;;;;4955248;28;93938;-78
2022/03/23 02:44:15;;;;;;;39.35;21.75;;;;;;;;;;4954550;28;94592;-77
2022/03/23 02:46:41;;;;;;;46.45;21.75;;;;;;;;;;4969158;28;92434;-78
2022/03/23 02:49:09;;;;;;;41.13;21.98;;;;;;;;;;4978305;28;93599;-79
2022/03/23 02:51:36;;;;;;;44.55;21.20;;;;;;;;;;4973817;28;92383;-78
2022/03/23 03:02:41;;;;;;;43.50;20.73;;;;;;;;;;4980563;28;93214;-78
2022/03/23 03:05:09;;;;;;;38.30;21.75;;;;;;;;;;4973108;28;93410;-78
2022/03/23 03:10:21;;;;;;;45.25;21.48;;;;;;;;;;4974578;28;93258;-78
2022/03/23 03:12:48;;;;;;;42.80;21.30;;;;;;;;;;4977645;28;93459;-79
2022/03/23 03:15:15;;;;;;;34.35;20.13;;;;;;;;;;4973201;28;93522;-78
2022/03/23 03:17:44;;;;;;;47.13;21.42;;;;;;;;;;4972830;28;93694;-78
2022/03/23 03:20:10;;;;;;;41.63;21.77;;;;;;;;;;4974587;28;92752;-78
2022/03/23 03:22:40;;;;;;;43.38;20.42;;;;;;;;;;4973102;28;94768;-78
2022/03/23 03:25:07;;;;;;;41.80;20.77;;;;;;;;;;4974543;28;94665;-78
2022/03/23 03:27:36;;;;;;;41.55;22.92;;;;;;;;;;4973138;28;92700;-78
2022/03/23 03:30:04;;;;;;;36.90;20.30;;;;;;;;;;4974912;28;96223;-78
2022/03/23 03:32:31;;;;;;;54.67;21.75;;;;;;;;;;4972986;28;93657;-78
2022/03/23 03:34:57;;;;;;;40.83;22.45;;;;;;;;;;4977238;28;92396;-78
2022/03/23 03:37:24;;;;;;;51.88;23.58;;;;;;;;;;4973434;28;93905;-78
2022/03/23 03:39:50;;;;;;;48.33;23.25;;;;;;;;;;4974799;28;91700;-78
2022/03/23 03:42:18;;;;;;;47.22;24.00;;;;;;;;;;4974348;28;92321;-77
2022/03/23 03:44:45;;;;;;;52.13;22.45;;;;;;;;;;4972331;28;93513;-78
2022/03/23 03:47:11;;;;;;;42.17;22.95;;;;;;;;;;4972954;28;94860;-78
2022/03/23 03:49:38;;;;;;;41.72;21.70;;;;;;;;;;4974185;28;95584;-78
2022/03/23 03:52:05;;;;;;;51.95;22.75;;;;;;;;;;4973333;28;93492;-78
2022/03/23 03:54:31;;;;;;;41.92;22.15;;;;;;;;;;4976350;28;92745;-78
2022/03/23 03:56:57;;;;;;;34.67;21.63;;;;;;;;;;4974080;28;93505;-78
2022/03/23 03:59:24;;;;;;;38.80;21.70;;;;;;;;;;4973920;28;92597;-78
2022/03/23 04:01:50;;;;;;;40.63;21.75;;;;;;;;;;4973916;28;93352;-78
2022/03/23 04:04:17;;;;;;;39.60;21.70;;;;;;;;;;4974336;28;92927;-78
2022/03/23 04:06:43;;;;;;;39.38;21.77;;;;;;;;;;4971992;28;92894;-78
2022/03/23 04:09:09;;;;;;;42.20;22.13;;;;;;;;;;4974043;28;93392;-78
2022/03/23 04:11:35;;;;;;;49.38;22.98;;;;;;;;;;4972108;28;98638;-78
2022/03/23 04:14:02;;;;;;;45.28;22.65;;;;;;;;;;4953351;28;92656;-78
2022/03/23 04:16:28;;;;;;;43.97;22.05;;;;;;;;;;4970273;28;93302;-78
2022/03/23 04:18:54;;;;;;;47.03;22.15;;;;;;;;;;4974202;28;92641;-78
2022/03/23 04:21:21;;;;;;;37.90;20.95;;;;;;;;;;4965413;28;93337;-78
2022/03/23 04:23:47;;;;;;;41.55;21.38;;;;;;;;;;4954114;28;93507;-78
2022/03/23 04:26:14;;;;;;;38.78;21.27;;;;;;;;;;4954441;28;92458;-78
2022/03/23 04:28:40;;;;;;;41.00;21.42;;;;;;;;;;4954352;28;93715;-78
2022/03/23 04:31:07;;;;;;;45.38;21.85;;;;;;;;;;4954877;28;95996;-78
2022/03/23 04:33:33;;;;;;;62.42;23.05;;;;;;;;;;4952660;28;92501;-78
2022/03/23 04:35:59;;;;;;;38.83;21.55;;;;;;;;;;4952578;28;94798;-78
2022/03/23 04:38:26;;;;;;;45.30;22.05;;;;;;;;;;4956823;28;93679;-78
2022/03/23 04:40:53;;;;;;;47.63;22.38;;;;;;;;;;4954085;28;93322;-78
2022/03/23 04:43:19;;;;;;;45.80;24.75;;;;;;;;;;4952114;28;94019;-78
2022/03/23 04:45:45;;;;;;;50.85;23.42;;;;;;;;;;4960544;28;92365;-77
2022/03/23 04:48:12;;;;;;;43.03;23.10;;;;;;;;;;4973733;28;92473;-77
2022/03/23 04:50:39;;;;;;;45.25;23.35;;;;;;;;;;4973841;28;93796;-77
2022/03/23 04:53:06;;;;;;;45.72;23.05;;;;;;;;;;4972869;28;91701;-77
2022/03/23 04:55:32;;;;;;;51.45;23.75;;;;;;;;;;4972922;28;92468;-76
2022/03/23 04:58:00;;;;;;;48.42;24.23;;;;;;;;;;4973012;28;94541;-77
2022/03/23 05:00:26;;;;;;;49.95;23.77;;;;;;;;;;4975033;28;94802;-77
2022/03/23 05:02:53;;;;;;;48.40;23.90;;;;;;;;;;4973807;28;95562;-76
2022/03/23 05:05:20;;;;;;;41.28;22.42;;;;;;;;;;4973114;28;92799;-77
2022/03/23 05:07:46;;;;;;;42.72;21.75;;;;;;;;;;4972354;28;92956;-77
2022/03/23 05:10:13;;;;;;;45.90;22.80;;;;;;;;;;4973510;28;93280;-77
2022/03/23 05:12:40;;;;;;;43.85;22.77;;;;;;;;;;4971101;28;92474;-77
2022/03/23 05:15:08;;;;;;;45.47;23.02;;;;;;;;;;4973380;28;93091;-78
2022/03/23 05:17:35;;;;;;;51.10;23.50;;;;;;;;;;4973688;28;92814;-77
2022/03/23 05:20:02;;;;;;;69.95;22.83;;;;;;;;;;4971942;28;92445;-77
2022/03/23 05:22:29;;;;;;;56.60;23.08;;;;;;;;;;4958054;28;94549;-77
2022/03/23 05:24:55;;;;;;;46.55;23.23;;;;;;;;;;4951972;28;95479;-77
2022/03/23 05:27:21;;;;;;;36.28;21.73;;;;;;;;;;4953812;28;95885;-77
2022/03/23 05:29:48;;;;;;;79.15;22.55;;;;;;;;;;4953167;28;93612;-77
2022/03/23 05:32:18;;;;;;;63.22;22.85;;;;;;;;;;4953180;28;92473;-77
2022/03/23 05:34:48;;;;;;;50.63;22.47;;;;;;;;;;4953138;28;93032;-77
2022/03/23 05:37:16;;;;;;;51.67;22.38;;;;;;;;;;4952381;28;93902;-77
2022/03/23 05:39:44;;;;;;;52.22;20.85;;;;;;;;;;4951830;28;93072;-77
2022/03/23 05:42:10;;;;;;;45.55;20.67;;;;;;;;;;4956300;28;93232;-77
2022/03/23 05:44:36;;;;;;;54.22;22.33;;;;;;;;;;4952862;28;92390;-77
2022/03/23 05:47:03;;;;;;;57.10;24.15;;;;;;;;;;4971087;28;93304;-77
2022/03/23 05:49:30;;;;;;;58.22;23.35;;;;;;;;;;4970885;28;96331;-77
2022/03/23 05:51:56;;;;;;;39.90;21.48;;;;;;;;;;4971004;28;92456;-77
2022/03/23 05:54:23;;;;;;;47.60;22.23;;;;;;;;;;4972646;28;93420;-77
2022/03/23 05:56:49;;;;;;;44.88;22.77;;;;;;;;;;4972576;28;93518;-77
2022/03/23 05:59:16;;;;;;;48.33;23.17;;;;;;;;;;4971230;28;92535;-77
2022/03/23 06:01:42;;;;;;;42.67;22.58;;;;;;;;;;4972493;28;93593;-77
2022/03/23 06:04:09;;;;;;;53.30;24.23;;;;;;;;;;4975893;28;93533;-77
2022/03/23 06:06:35;;;;;;;46.70;24.65;;;;;;;;;;4972278;28;92779;-77
2022/03/23 06:09:01;;;;;;;53.50;24.83;;;;;;;;;;4972742;28;96621;-77
2022/03/23 06:11:28;;;;;;;48.13;23.52;;;;;;;;;;4972982;28;92857;-77
2022/03/23 06:13:54;;;;;;;57.58;23.60;;;;;;;;;;4967047;28;95082;-76
2022/03/23 06:16:20;;;;;;;45.70;23.67;;;;;;;;;;4979448;28;93743;-77
2022/03/23 06:18:47;;;;;;;49.35;24.42;;;;;;;;;;4975477;28;92583;-77
2022/03/23 06:21:13;;;;;;;55.53;25.35;;;;;;;;;;4967910;28;93617;-77
2022/03/23 06:23:39;;;;;;;53.22;25.27;;;;;;;;;;4954441;28;93288;-77
2022/03/23 06:26:06;;;;;;;50.88;24.88;;;;;;;;;;4958401;28;92481;-77
2022/03/23 06:28:32;;;;;;;60.72;25.73;;;;;;;;;;4955713;28;93485;-77
2022/03/23 06:30:59;;;;;;;47.33;25.48;;;;;;;;;;4956049;28;91881;-77
2022/03/23 06:33:25;;;;;;;49.83;24.77;;;;;;;;;;4955966;28;92572;-76
2022/03/23 06:35:52;;;;;;;51.63;25.63;;;;;;;;;;4954291;28;93545;-77
2022/03/23 06:38:18;;;;;;;47.03;22.75;;;;;;;;;;4954288;28;94883;-77
2022/03/23 06:40:45;;;;;;;51.30;25.00;;;;;;;;;;4954266;28;95833;-77
2022/03/23 06:43:11;;;;;;;48.10;25.00;;;;;;;;;;4954300;28;94063;-77
2022/03/23 06:45:40;;;;;;;52.88;24.75;;;;;;;;;;4961121;28;92369;-77
2022/03/23 06:48:07;;;;;;;47.22;24.48;;;;;;;;;;4976499;28;93109;-77
2022/03/23 06:50:33;;;;;;;55.42;27.13;;;;;;;;;;4975312;28;92385;-77
2022/03/23 06:53:00;;;;;;;47.30;24.80;;;;;;;;;;4975582;28;93567;-77
2022/03/23 06:55:26;;;;;;;42.92;24.52;;;;;;;;;;4975374;28;92865;-77
2022/03/23 06:57:53;;;;;;;48.92;25.20;;;;;;;;;;4975031;28;92453;-77
2022/03/23 07:00:19;;;;;;;47.30;25.10;;;;;;;;;;4975171;28;93055;-77
2022/03/23 07:02:47;;;;;;;46.10;26.65;;;;;;;;;;4973195;28;96180;-77
2022/03/23 07:05:13;;;;;;;53.53;26.17;;;;;;;;;;4974641;28;92509;-78
2022/03/23 07:10:26;;;;;;;55.17;27.98;;;;;;;;;;4977897;28;92986;-77
2022/03/23 07:12:53;;;;;;;52.35;27.85;;;;;;;;;;4973508;28;93425;-77
2022/03/23 07:15:19;;;;;;;50.60;27.92;;;;;;;;;;4974382;28;93272;-78
2022/03/23 07:17:45;;;;;;;52.90;28.23;;;;;;;;;;4974699;28;92960;-78
2022/03/23 07:20:12;;;;;;;44.13;25.10;;;;;;;;;;4974975;28;93249;-76
2022/03/23 07:22:38;;;;;;;56.08;25.58;;;;;;;;;;4974526;28;93627;-77
2022/03/23 07:25:05;;;;;;;43.33;24.00;;;;;;;;;;4957139;28;92517;-78
2022/03/23 07:27:31;;;;;;;52.15;24.77;;;;;;;;;;4972862;28;94854;-78
2022/03/23 07:29:58;;;;;;;50.00;24.77;;;;;;;;;;4974666;28;95684;-77
2022/03/23 07:32:24;;;;;;;49.55;25.15;;;;;;;;;;4977448;28;92406;-78
2022/03/23 07:34:50;;;;;;;54.08;25.38;;;;;;;;;;4974350;28;93237;-77
2022/03/23 07:37:17;;;;;;;48.05;26.23;;;;;;;;;;4974229;28;92387;-77
2022/03/23 07:39:43;;;;;;;52.88;26.90;;;;;;;;;;4974422;28;93531;-77
2022/03/23 07:42:09;;;;;;;52.70;27.40;;;;;;;;;;4973412;28;93453;-77
2022/03/23 07:44:36;;;;;;;55.38;27.13;;;;;;;;;;4974753;28;91703;-77
2022/03/23 07:47:02;;;;;;;54.13;25.83;;;;;;;;;;4974167;28;92375;-77
2022/03/23 07:49:30;;;;;;;44.92;25.95;;;;;;;;;;4972700;28;93716;-77
2022/03/23 07:52:02;;;;;;;57.33;26.67;;;;;;;;;;4976136;28;94803;-77
2022/03/23 07:54:28;;;;;;;50.88;25.98;;;;;;;;;;4974340;28;93661;-77
2022/03/23 07:56:54;;;;;;;59.10;26.45;;;;;;;;;;4974254;28;92389;-77
2022/03/23 07:59:21;;;;;;;54.80;26.10;;;;;;;;;;4974394;28;93585;-78
2022/03/23 08:01:47;;;;;;;47.25;25.30;;;;;;;;;;4974570;28;94240;-78
2022/03/23 08:04:14;;;;;;;44.97;25.20;;;;;;;;;;4974431;28;92420;-78
2022/03/23 08:06:40;;;;;;;43.63;24.58;;;;;;;;;;4973459;28;93479;-77
2022/03/23 08:09:06;;;;;;;48.08;24.45;;;;;;;;;;4973061;28;92452;-78
2022/03/23 08:11:33;;;;;;;51.03;24.63;;;;;;;;;;4973582;28;92629;-78
2022/03/23 08:13:59;;;;;;;44.03;24.20;;;;;;;;;;4976848;28;93284;-78
2022/03/23 08:16:25;;;;;;;53.08;25.25;;;;;;;;;;4967704;28;94934;-78
2022/03/23 08:18:52;;;;;;;46.22;24.33;;;;;;;;;;4954395;28;95655;-77
2022/03/23 08:21:20;;;;;;;42.60;24.55;;;;;;;;;;4962724;28;92539;-77
2022/03/23 08:23:48;;;;;;;51.83;24.92;;;;;;;;;;4973955;28;92377;-78
2022/03/23 08:26:14;;;;;;;51.22;25.00;;;;;;;;;;4971928;28;93543;-78
2022/03/23 08:28:41;;;;;;;48.63;24.05;;;;;;;;;;4973768;28;94261;-78
2022/03/23 08:31:09;;;;;;;49.03;24.88;;;;;;;;;;4973837;28;92451;-78
2022/03/23 08:33:35;;;;;;;42.08;24.52;;;;;;;;;;4974588;28;93085;-78
2022/03/23 08:36:02;;;;;;;53.75;26.17;;;;;;;;;;4976315;28;93189;-77
2022/03/23 08:38:29;;;;;;;50.53;24.92;;;;;;;;;;4972434;28;93140;-78
2022/03/23 08:40:56;;;;;;;58.63;25.33;;;;;;;;;;4971430;28;96057;-78
2022/03/23 08:43:22;;;;;;;57.00;25.60;;;;;;;;;;4973687;28;92402;-78
2022/03/23 08:45:49;;;;;;;46.60;23.75;;;;;;;;;;4965042;28;93284;-78
2022/03/23 08:48:18;;;;;;;49.83;25.35;;;;;;;;;;4953930;28;93430;-78
2022/03/23 08:50:45;;;;;;;55.50;24.50;;;;;;;;;;4952167;28;92419;-78
2022/03/23 08:53:11;;;;;;;44.50;24.45;;;;;;;;;;4952238;28;93202;-78
2022/03/23 08:55:37;;;;;;;47.25;25.42;;;;;;;;;;4936642;28;93517;-78
2022/03/23 08:58:04;;;;;;;45.25;23.75;;;;;;;;;;4957288;28;91714;-78
2022/03/23 09:00:30;;;;;;;46.33;23.92;;;;;;;;;;4952467;28;93765;-78
2022/03/23 09:02:57;;;;;;;46.22;24.98;;;;;;;;;;4971510;28;92438;-78
2022/03/23 09:05:23;;;;;;;43.75;24.38;;;;;;;;;;4971400;28;94789;-79
2022/03/23 09:07:50;;;;;;;45.42;24.48;;;;;;;;;;4957796;28;93697;-79
2022/03/23 09:10:17;;;;;;;48.28;25.35;;;;;;;;;;4954062;28;92575;-79
2022/03/23 09:12:43;;;;;;;61.78;26.40;;;;;;;;;;4953525;28;93441;-79
2022/03/23 09:15:11;;;;;;;49.05;26.23;;;;;;;;;;4971003;28;93582;-79
2022/03/23 09:17:37;;;;;;;52.92;25.73;;;;;;;;;;4972045;28;92464;-79
2022/03/23 09:20:05;;;;;;;50.42;26.52;;;;;;;;;;4975502;28;93405;-80
2022/03/23 09:22:37;;;;;;;47.00;26.55;;;;;;;;;;4973457;28;92585;-80
2022/03/23 09:25:04;;;;;;;45.90;24.98;;;;;;;;;;4973048;28;92395;-80
2022/03/23 09:27:34;;;;;;;46.45;25.65;;;;;;;;;;4972878;28;93460;-81
2022/03/23 09:30:02;;;;;;;47.70;25.55;;;;;;;;;;4971412;28;94818;-81
2022/03/23 09:32:28;;;;;;;56.17;25.77;;;;;;;;;;4971656;28;95637;-81
2022/03/23 09:34:54;;;;;;;38.30;24.63;;;;;;;;;;4971311;28;93514;-79
2022/03/23 09:40:06;;;;;;;47.35;25.13;;;;;;;;;;4972633;28;93657;-80
2022/03/23 09:42:33;;;;;;;41.20;24.85;;;;;;;;;;4975486;28;93923;-80
2022/03/23 09:45:00;;;;;;;48.85;24.00;;;;;;;;;;4971674;28;93663;-81
2022/03/23 09:47:26;;;;;;;41.08;24.13;;;;;;;;;;4953048;28;94559;-81
2022/03/23 09:49:53;;;;;;;36.60;23.98;;;;;;;;;;4950961;28;93295;-81
2022/03/23 09:52:19;;;;;;;44.88;23.05;;;;;;;;;;4953138;28;97132;-81
2022/03/23 09:54:45;;;;;;;49.13;24.00;;;;;;;;;;4953849;28;97093;-81
2022/03/23 09:57:13;;;;;;;35.08;23.08;;;;;;;;;;4969902;28;93772;-80
2022/03/23 09:59:40;;;;;;;44.53;24.23;;;;;;;;;;4954891;28;93760;-80
2022/03/23 10:02:12;;;;;;;34.38;21.90;;;;;;;;;;4974981;28;97860;-80
2022/03/23 10:04:57;;;;;;;35.80;21.40;;;;;;;;;;4973990;28;95637;-81
2022/03/23 10:07:31;;;;;;;36.25;22.30;;;;;;;;;;4973129;28;95351;-81
2022/03/23 10:10:25;;;;;;;33.05;21.65;;;;;;;;;;4973795;28;94436;-81
2022/03/23 10:13:10;;;;;;;38.30;20.92;;;;;;;;;;4973114;28;95185;-81
2022/03/23 10:16:10;;;;;;;29.70;20.58;;;;;;;;;;4973628;28;96312;-81
2022/03/23 10:18:50;;;;;;;30.35;21.30;;;;;;;;;;4972900;28;94719;-81
2022/03/23 10:21:18;;;;;;;36.20;21.73;;;;;;;;;;4963854;28;97219;-79
2022/03/23 10:23:52;;;;;;;30.30;21.13;;;;;;;;;;4936243;28;95898;-82
2022/03/23 10:26:18;;;;;;;34.22;19.92;;;;;;;;;;4957237;28;95734;-81
2022/03/23 10:28:45;;;;;;;39.83;21.60;;;;;;;;;;4953141;28;95941;-82
2022/03/23 10:31:16;;;;;;;33.05;18.75;;;;;;;;;;4952113;28;94854;-81
2022/03/23 10:33:42;;;;;;;33.95;18.58;;;;;;;;;;4953691;28;95889;-82
2022/03/23 10:36:09;;;;;;;34.67;17.92;;;;;;;;;;4953751;28;95992;-81
2022/03/23 10:38:39;;;;;;;30.30;18.67;;;;;;;;;;4953302;28;94175;-81
2022/03/23 10:41:10;;;;;;;27.17;17.52;;;;;;;;;;4952261;28;95065;-82
2022/03/23 10:43:37;;;;;;;30.33;17.98;;;;;;;;;;4953124;28;95917;-82
2022/03/23 10:46:08;;;;;;;30.40;17.15;;;;;;;;;;4960433;28;97689;-82
2022/03/23 10:48:34;;;;;;;44.88;19.15;;;;;;;;;;4976262;28;97921;-82
2022/03/23 10:51:01;;;;;;;34.53;17.55;;;;;;;;;;4973371;28;94794;-82
2022/03/23 10:53:36;;;;;;;35.28;18.05;;;;;;;;;;4972807;28;95473;-81
2022/03/23 10:56:03;;;;;;;29.80;17.63;;;;;;;;;;4972075;28;96237;-81
2022/03/23 10:58:29;;;;;;;31.67;18.02;;;;;;;;;;4972359;28;94843;-82
2022/03/23 11:00:58;;;;;;;37.33;19.27;;;;;;;;;;4972682;28;95510;-81
2022/03/23 11:03:36;;;;;;;36.03;18.33;;;;;;;;;;4970909;28;95065;-81
2022/03/23 11:06:03;;;;;;;29.25;17.83;;;;;;;;;;4972383;28;95077;-82
2022/03/23 11:08:29;;;;;;;29.30;18.30;;;;;;;;;;4971879;28;95744;-82
2022/03/23 11:16:37;;;;;;;;;;;;;;;;;;4972966;28;96058;-82
2022/03/23 11:19:09;;;;;;;31.20;16.98;;;;;;;;;;4973693;28;122439;-82
2022/03/23 11:21:54;;;;;;;29.42;17.20;;;;;;;;;;4962064;28;95876;-82
2022/03/23 11:24:21;;;;;;;30.45;15.88;;;;;;;;;;4952784;28;95986;-82
2022/03/23 11:26:48;;;;;;;33.17;16.40;;;;;;;;;;4952863;28;94808;-82
2022/03/23 11:29:14;;;;;;;31.27;16.73;;;;;;;;;;4953064;28;94813;-82
2022/03/23 11:31:41;;;;;;;38.08;16.95;;;;;;;;;;4953383;28;96689;-81
2022/03/23 11:34:08;;;;;;;28.98;16.85;;;;;;;;;;4955082;28;94786;-81
2022/03/23 11:36:35;;;;;;;33.10;15.40;;;;;;;;;;4951606;28;98712;-82
2022/03/23 11:39:04;;;;;;;28.45;15.43;;;;;;;;;;4952379;28;94994;-82
2022/03/23 11:41:32;;;;;;;33.97;16.02;;;;;;;;;;4951561;28;96054;-82
2022/03/23 11:43:58;;;;;;;30.80;15.90;;;;;;;;;;4951713;28;95816;-82
2022/03/23 11:46:25;;;;;;;27.35;14.73;;;;;;;;;;4965065;28;94713;-82
2022/03/23 11:49:10;;;;;;;28.17;15.43;;;;;;;;;;4972132;28;96093;-81
2022/03/23 11:51:50;;;;;;;27.75;15.50;;;;;;;;;;4972834;28;96008;-82
2022/03/23 11:54:17;;;;;;;30.35;13.75;;;;;;;;;;4970806;28;93965;-82
2022/03/23 11:56:56;;;;;;;29.60;13.57;;;;;;;;;;4973559;28;95299;-82
2022/03/23 11:59:26;;;;;;;29.73;13.65;;;;;;;;;;4971448;28;94618;-82
2022/03/23 12:01:53;;;;;;;33.05;13.77;;;;;;;;;;4964151;28;97671;-78
2022/03/23 12:04:21;;;;;;;29.20;13.98;;;;;;;;;;4952237;28;95977;-82
2022/03/23 12:07:01;;;;;;;32.33;13.07;;;;;;;;;;4951355;28;95150;-82
2022/03/23 12:09:31;;;;;;;29.17;14.13;;;;;;;;;;4951573;28;98060;-80
2022/03/23 12:11:58;;;;;;;37.25;13.82;;;;;;;;;;4951867;28;95637;-82
2022/03/23 12:14:32;;;;;;;25.02;14.07;;;;;;;;;;4951946;28;94495;-82
2022/03/23 12:17:03;;;;;;;39.05;13.73;;;;;;;;;;4972278;28;95213;-81
2022/03/23 12:19:52;;;;;;;24.13;13.70;;;;;;;;;;4971409;28;94111;-81
2022/03/23 12:22:31;;;;;;;28.13;14.05;;;;;;;;;;4956082;28;94565;-82
2022/03/23 12:25:03;;;;;;;22.45;12.65;;;;;;;;;;4951560;28;94258;-82
2022/03/23 12:27:44;;;;;;;28.00;14.20;;;;;;;;;;4951433;28;96610;-82
2022/03/23 12:30:26;;;;;;;31.65;14.20;;;;;;;;;;4961252;28;97502;-82
2022/03/23 12:32:56;;;;;;;32.47;15.00;;;;;;;;;;4972179;28;94849;-81
2022/03/23 12:35:29;;;;;;;29.08;13.45;;;;;;;;;;4972458;28;94524;-81
2022/03/23 12:37:56;;;;;;;35.92;14.85;;;;;;;;;;4972473;28;94790;-81
2022/03/23 12:40:23;;;;;;;30.48;15.73;;;;;;;;;;4974211;28;94736;-82
2022/03/23 12:42:49;;;;;;;35.67;14.80;;;;;;;;;;4972857;28;96354;-82
2022/03/23 12:45:18;;;;;;;28.58;14.52;;;;;;;;;;4972805;28;94403;-80
2022/03/23 12:47:44;;;;;;;;;;;;;;;;;;4973205;28;94207;-80
2022/03/23 12:58:30;;;;;;;30.77;14.10;;;;;;;;;;4973800;28;95080;-80
2022/03/23 13:01:15;;;;;;;28.17;15.18;;;;;;;;;;4973016;28;93719;-80
2022/03/23 13:03:47;;;;;;;31.52;14.50;;;;;;;;;;4976618;28;92437;-79
2022/03/23 13:06:15;;;;;;;29.77;14.23;;;;;;;;;;4972751;28;93408;-80
2022/03/23 13:08:48;;;;;;;28.83;13.77;;;;;;;;;;4971840;28;93772;-79
2022/03/23 13:11:18;;;;;;;28.58;11.65;;;;;;;;;;4973281;28;93331;-80
2022/03/23 13:13:46;;;;;;;31.00;13.63;;;;;;;;;;4973086;28;94239;-80
2022/03/23 13:16:14;;;;;;;35.25;14.00;;;;;;;;;;4973190;28;92437;-79
2022/03/23 13:18:41;;;;;;;31.55;13.75;;;;;;;;;;4972314;28;95077;-78
2022/03/23 13:21:10;;;;;;;31.45;13.10;;;;;;;;;;4973682;28;95815;-79
2022/03/23 13:23:37;;;;;;;;;;;;;;;;;;4973866;28;92688;-79
2022/03/23 13:26:08;;;;;;;31.60;13.80;;;;;;;;;;4977100;28;122719;-79
2022/03/23 13:28:36;;;;;;;19.58;12.70;;;;;;;;;;4976959;28;92687;-79
2022/03/23 13:31:03;;;;;;;26.02;14.50;;;;;;;;;;4976074;28;92614;-79
2022/03/23 13:33:40;;;;;;;33.50;12.93;;;;;;;;;;4977019;28;95577;-79
2022/03/23 13:36:07;;;;;;;31.42;14.00;;;;;;;;;;4959105;28;91879;-79
2022/03/23 13:38:34;;;;;;;31.10;14.02;;;;;;;;;;4975352;28;94810;-79
2022/03/23 13:43:46;;;;;;;28.92;15.13;;;;;;;;;;4974348;28;95039;-79
2022/03/23 13:46:12;;;;;;;32.78;14.40;;;;;;;;;;4975592;28;95661;-79
2022/03/23 13:48:39;;;;;;;29.38;14.02;;;;;;;;;;4977720;28;93226;-79
2022/03/23 13:51:05;;;;;;;30.55;15.05;;;;;;;;;;4974687;28;93333;-79
2022/03/23 13:53:32;;;;;;;29.50;14.73;;;;;;;;;;4974717;28;93673;-79
2022/03/23 13:55:59;;;;;;;31.98;13.13;;;;;;;;;;4976012;28;92437;-79
2022/03/23 13:58:26;;;;;;;33.38;13.90;;;;;;;;;;4976408;28;93018;-79
2022/03/23 14:00:56;;;;;;;29.33;13.93;;;;;;;;;;4976467;28;92664;-78
2022/03/23 14:03:42;;;;;;;37.22;15.50;;;;;;;;;;4961105;28;92586;-78
2022/03/23 14:06:15;;;;;;;35.78;14.77;;;;;;;;;;4956746;28;94118;-79
2022/03/23 14:08:51;;;;;;;30.63;14.30;;;;;;;;;;4953621;28;95903;-78
2022/03/23 14:11:18;;;;;;;33.10;14.73;;;;;;;;;;4959206;28;92451;-79
2022/03/23 14:13:51;;;;;;;30.70;13.40;;;;;;;;;;4956041;28;93609;-78
2022/03/23 14:16:22;;;;;;;35.00;13.75;;;;;;;;;;4967506;28;92459;-78
2022/03/23 14:18:48;;;;;;;33.13;15.50;;;;;;;;;;4975655;28;93295;-78
2022/03/23 14:21:33;;;;;;;31.48;16.17;;;;;;;;;;4967425;28;93511;-78
2022/03/23 14:23:59;;;;;;;37.25;15.20;;;;;;;;;;4955742;28;92447;-77
2022/03/23 14:26:27;;;;;;;39.05;14.90;;;;;;;;;;4956082;28;93404;-79
2022/03/23 14:28:53;;;;;;;35.80;16.75;;;;;;;;;;4955945;28;94161;-77
2022/03/23 14:31:22;;;;;;;35.58;15.52;;;;;;;;;;4959386;28;92426;-79
2022/03/23 14:33:54;;;;;;;38.22;15.82;;;;;;;;;;4953242;28;99058;-78
2022/03/23 14:36:21;;;;;;;34.85;15.50;;;;;;;;;;4956205;28;92589;-79
2022/03/23 14:38:47;;;;;;;29.63;15.07;;;;;;;;;;4954352;28;93457;-78
2022/03/23 14:41:18;;;;;;;35.85;15.27;;;;;;;;;;4955410;28;94090;-78
2022/03/23 14:43:47;;;;;;;32.10;16.35;;;;;;;;;;4954352;28;92517;-78
2022/03/23 14:46:26;;;;;;;39.13;14.93;;;;;;;;;;4964855;28;93185;-78
2022/03/23 14:49:19;;;;;;;32.30;15.38;;;;;;;;;;4974856;28;93533;-78
2022/03/23 14:51:49;;;;;;;31.60;14.85;;;;;;;;;;4975623;28;91765;-78
2022/03/23 14:54:16;;;;;;;31.15;15.30;;;;;;;;;;4978135;28;92862;-78
2022/03/23 14:56:48;;;;;;;36.00;15.52;;;;;;;;;;4974852;28;92700;-78